Terminal Aerodrome Forecast
Issued by NWS

Home | Current Version | Previous Version | Text Only | Print | Product List | Glossary On
Versions: 1 2 3 4 5 6 7 8 9 10 11 12 13 14 15 16 17 18 19
000
FTUS41 KCAR 191222 AAA
TAFBHB
TAF AMD
KBHB 191222Z 1912/2012 12004KT 1/2SM -DZ FG OVC003
     FM191500 VRB03KT P6SM OVC005
     FM192300 17005KT P6SM VCSH OVC012
     FM200400 15004KT 2SM BR OVC003=

USA.gov is the U.S. government's official web portal to all federal, state and local government web resources and services.